sensor_id;sensor_type;location;lat;lon;timestamp;pressure;altitude;pressure_sealevel;temperature;humidity
550;BME280;20066;48.764;9.176;2023-03-01T00:02:27;98948.78;;;2.62;55.83
550;BME280;20066;48.764;9.176;2023-03-01T00:04:55;98954.75;;;2.67;54.67
550;BME280;20066;48.764;9.176;2023-03-01T00:07:23;98954.44;;;2.86;55.17
550;BME280;20066;48.764;9.176;2023-03-01T00:09:51;98956.16;;;2.82;54.49
550;BME280;20066;48.764;9.176;2023-03-01T00:12:19;98961.13;;;2.58;56.07
550;BME280;20066;48.764;9.176;2023-03-01T00:14:47;98951.25;;;2.32;56.55
550;BME280;20066;48.764;9.176;2023-03-01T00:17:15;98957.97;;;2.38;55.81
550;BME280;20066;48.764;9.176;2023-03-01T00:19:44;98959.59;;;2.83;55.31
550;BME280;20066;48.764;9.176;2023-03-01T00:22:12;98956.28;;;2.43;56.20
550;BME280;20066;48.764;9.176;2023-03-01T00:24:40;98951.59;;;2.48;56.04
550;BME280;20066;48.764;9.176;2023-03-01T00:27:08;98954.09;;;2.45;55.70
550;BME280;20066;48.764;9.176;2023-03-01T00:29:36;98962.50;;;2.38;56.29
550;BME280;20066;48.764;9.176;2023-03-01T00:32:04;98968.06;;;2.11;57.01
550;BME280;20066;48.764;9.176;2023-03-01T00:34:32;98957.53;;;2.36;56.85
550;BME280;20066;48.764;9.176;2023-03-01T00:37:02;98961.84;;;1.76;58.16
550;BME280;20066;48.764;9.176;2023-03-01T00:39:31;98958.38;;;2.15;57.16
550;BME280;20066;48.764;9.176;2023-03-01T00:41:59;98955.59;;;2.11;57.25
550;BME280;20066;48.764;9.176;2023-03-01T00:44:27;98955.81;;;2.41;55.70
550;BME280;20066;48.764;9.176;2023-03-01T00:46:55;98945.81;;;2.46;55.97
550;BME280;20066;48.764;9.176;2023-03-01T00:49:23;98945.34;;;2.53;55.24
550;BME280;20066;48.764;9.176;2023-03-01T00:51:54;98947.53;;;2.42;55.91
550;BME280;20066;48.764;9.176;2023-03-01T00:54:23;98943.53;;;1.57;57.53
550;BME280;20066;48.764;9.176;2023-03-01T00:56:51;98948.56;;;2.15;56.88
550;BME280;20066;48.764;9.176;2023-03-01T00:59:19;98945.91;;;2.15;56.98
550;BME280;20066;48.764;9.176;2023-03-01T01:01:47;98951.53;;;1.66;58.18
550;BME280;20066;48.764;9.176;2023-03-01T01:04:15;98942.16;;;1.68;57.67
550;BME280;20066;48.764;9.176;2023-03-01T01:06:45;98946.81;;;2.02;57.15
550;BME280;20066;48.764;9.176;2023-03-01T01:09:15;98942.81;;;2.13;56.64
550;BME280;20066;48.764;9.176;2023-03-01T01:11:47;98937.41;;;1.87;57.27
550;BME280;20066;48.764;9.176;2023-03-01T01:14:15;98939.34;;;1.65;58.11
550;BME280;20066;48.764;9.176;2023-03-01T01:16:44;98936.47;;;1.44;57.45
550;BME280;20066;48.764;9.176;2023-03-01T01:19:12;98938.69;;;0.61;60.94
550;BME280;20066;48.764;9.176;2023-03-01T01:21:42;98951.13;;;1.50;59.55
550;BME280;20066;48.764;9.176;2023-03-01T01:24:11;98939.69;;;1.41;59.10
550;BME280;20066;48.764;9.176;2023-03-01T01:26:40;98936.06;;;1.59;58.75
550;BME280;20066;48.764;9.176;2023-03-01T01:29:09;98927.97;;;1.33;59.43
550;BME280;20066;48.764;9.176;2023-03-01T01:31:39;98930.06;;;1.45;58.78
550;BME280;20066;48.764;9.176;2023-03-01T01:34:13;98928.97;;;0.93;61.97
550;BME280;20066;48.764;9.176;2023-03-01T01:36:42;98931.16;;;1.13;60.25
550;BME280;20066;48.764;9.176;2023-03-01T01:39:10;98931.66;;;1.54;58.34
550;BME280;20066;48.764;9.176;2023-03-01T01:41:40;98921.44;;;1.70;58.09
550;BME280;20066;48.764;9.176;2023-03-01T01:44:18;98920.16;;;1.28;59.64
550;BME280;20066;48.764;9.176;2023-03-01T01:46:49;98913.16;;;1.63;58.49
550;BME280;20066;48.764;9.176;2023-03-01T01:49:25;98918.69;;;1.92;57.64
550;BME280;20066;48.764;9.176;2023-03-01T01:51:59;98916.69;;;2.07;57.27
550;BME280;20066;48.764;9.176;2023-03-01T01:54:33;98913.94;;;1.64;58.08
550;BME280;20066;48.764;9.176;2023-03-01T01:57:08;98906.44;;;2.05;56.91
550;BME280;20066;48.764;9.176;2023-03-01T01:59:41;98906.59;;;2.26;56.33
550;BME280;20066;48.764;9.176;2023-03-01T02:02:11;98906.63;;;2.52;55.78
550;BME280;20066;48.764;9.176;2023-03-01T02:04:40;98905.25;;;1.80;57.50
550;BME280;20066;48.764;9.176;2023-03-01T02:07:14;98905.22;;;2.28;56.32
550;BME280;20066;48.764;9.176;2023-03-01T02:09:45;98902.88;;;2.35;55.91
550;BME280;20066;48.764;9.176;2023-03-01T02:12:14;98897.66;;;1.96;57.50
550;BME280;20066;48.764;9.176;2023-03-01T02:14:44;98892.09;;;2.49;55.40
550;BME280;20066;48.764;9.176;2023-03-01T02:17:15;98889.72;;;2.22;55.58
550;BME280;20066;48.764;9.176;2023-03-01T02:19:52;98885.72;;;2.42;54.49
550;BME280;20066;48.764;9.176;2023-03-01T02:22:24;98879.19;;;1.74;57.85
550;BME280;20066;48.764;9.176;2023-03-01T02:25:04;98875.56;;;2.44;56.06
550;BME280;20066;48.764;9.176;2023-03-01T02:27:40;98870.09;;;2.74;54.73
550;BME280;20066;48.764;9.176;2023-03-01T02:30:12;98878.84;;;2.66;54.10
550;BME280;20066;48.764;9.176;2023-03-01T02:32:40;98873.84;;;2.39;54.61
550;BME280;20066;48.764;9.176;2023-03-01T02:35:09;98868.38;;;2.35;54.96
550;BME280;20066;48.764;9.176;2023-03-01T02:37:40;98864.81;;;1.57;58.07
550;BME280;20066;48.764;9.176;2023-03-01T02:40:12;98856.44;;;1.73;56.72
550;BME280;20066;48.764;9.176;2023-03-01T02:42:47;98853.47;;;0.95;60.45
550;BME280;20066;48.764;9.176;2023-03-01T02:45:18;98852.19;;;1.63;59.43
550;BME280;20066;48.764;9.176;2023-03-01T02:47:47;98860.38;;;1.13;58.87
550;BME280;20066;48.764;9.176;2023-03-01T02:50:25;98847.00;;;1.10;60.32
550;BME280;20066;48.764;9.176;2023-03-01T02:53:06;98851.00;;;0.76;60.75
550;BME280;20066;48.764;9.176;2023-03-01T02:55:36;98846.31;;;1.35;59.45
550;BME280;20066;48.764;9.176;2023-03-01T02:58:05;98839.34;;;0.77;60.84
550;BME280;20066;48.764;9.176;2023-03-01T03:00:36;98843.00;;;1.30;59.17
550;BME280;20066;48.764;9.176;2023-03-01T03:03:07;98844.59;;;1.00;60.73
550;BME280;20066;48.764;9.176;2023-03-01T03:05:35;98832.94;;;1.40;59.93
550;BME280;20066;48.764;9.176;2023-03-01T03:08:03;98843.41;;;2.19;56.91
550;BME280;20066;48.764;9.176;2023-03-01T03:10:33;98830.59;;;2.21;56.68
550;BME280;20066;48.764;9.176;2023-03-01T03:13:03;98838.38;;;2.09;56.42
550;BME280;20066;48.764;9.176;2023-03-01T03:15:31;98825.09;;;1.92;57.04
550;BME280;20066;48.764;9.176;2023-03-01T03:18:06;98828.38;;;2.66;54.92
550;BME280;20066;48.764;9.176;2023-03-01T03:20:34;98817.78;;;2.41;56.80
550;BME280;20066;48.764;9.176;2023-03-01T03:23:02;98819.78;;;2.61;54.91
550;BME280;20066;48.764;9.176;2023-03-01T03:25:30;98825.56;;;2.63;54.93
550;BME280;20066;48.764;9.176;2023-03-01T03:27:58;98818.84;;;2.83;54.96
550;BME280;20066;48.764;9.176;2023-03-01T03:30:28;98816.31;;;2.78;55.13
550;BME280;20066;48.764;9.176;2023-03-01T03:32:56;98813.84;;;2.72;54.59
550;BME280;20066;48.764;9.176;2023-03-01T03:35:28;98817.88;;;2.87;54.88
550;BME280;20066;48.764;9.176;2023-03-01T03:37:58;98817.78;;;2.32;54.93
550;BME280;20066;48.764;9.176;2023-03-01T03:40:31;98814.59;;;2.90;54.66
550;BME280;20066;48.764;9.176;2023-03-01T03:42:59;98825.03;;;2.95;53.88
550;BME280;20066;48.764;9.176;2023-03-01T03:45:27;98819.81;;;3.16;53.45
550;BME280;20066;48.764;9.176;2023-03-01T03:47:55;98820.25;;;3.27;52.97
550;BME280;20066;48.764;9.176;2023-03-01T03:50:23;98821.50;;;3.29;52.75
550;BME280;20066;48.764;9.176;2023-03-01T03:52:52;98815.59;;;3.53;52.19
550;BME280;20066;48.764;9.176;2023-03-01T03:55:20;98817.59;;;3.27;53.33
550;BME280;20066;48.764;9.176;2023-03-01T03:57:49;98810.22;;;2.86;52.98
550;BME280;20066;48.764;9.176;2023-03-01T04:00:20;98814.19;;;3.18;52.89
550;BME280;20066;48.764;9.176;2023-03-01T04:02:50;98810.44;;;2.55;55.73
550;BME280;20066;48.764;9.176;2023-03-01T04:05:23;98803.53;;;2.71;55.50
550;BME280;20066;48.764;9.176;2023-03-01T04:07:52;98802.75;;;2.70;55.00
550;BME280;20066;48.764;9.176;2023-03-01T04:10:28;98797.72;;;2.78;54.74
550;BME280;20066;48.764;9.176;2023-03-01T04:12:56;98796.41;;;2.03;56.39
550;BME280;20066;48.764;9.176;2023-03-01T04:15:25;98795.44;;;2.67;55.39
550;BME280;20066;48.764;9.176;2023-03-01T04:17:54;98794.13;;;2.91;54.11
550;BME280;20066;48.764;9.176;2023-03-01T04:20:24;98789.38;;;3.05;54.57
550;BME280;20066;48.764;9.176;2023-03-01T04:23:00;98792.78;;;3.14;53.74
550;BME280;20066;48.764;9.176;2023-03-01T04:25:38;98795.00;;;3.03;53.88
550;BME280;20066;48.764;9.176;2023-03-01T04:28:06;98784.72;;;2.93;53.95
550;BME280;20066;48.764;9.176;2023-03-01T04:30:35;98793.47;;;3.32;52.50
550;BME280;20066;48.764;9.176;2023-03-01T04:33:04;98792.38;;;3.33;53.23
550;BME280;20066;48.764;9.176;2023-03-01T04:35:32;98785.63;;;3.06;54.54
550;BME280;20066;48.764;9.176;2023-03-01T04:38:02;98787.88;;;3.54;52.77
550;BME280;20066;48.764;9.176;2023-03-01T04:40:31;98789.66;;;3.71;51.86
550;BME280;20066;48.764;9.176;2023-03-01T04:42:59;98787.63;;;3.76;51.84
550;BME280;20066;48.764;9.176;2023-03-01T04:45:27;98791.19;;;3.22;52.28
550;BME280;20066;48.764;9.176;2023-03-01T04:47:55;98786.88;;;2.45;54.76
550;BME280;20066;48.764;9.176;2023-03-01T04:50:24;98791.38;;;2.53;55.73
550;BME280;20066;48.764;9.176;2023-03-01T04:52:53;98779.09;;;2.95;55.07
550;BME280;20066;48.764;9.176;2023-03-01T04:55:22;98787.53;;;3.35;53.11
550;BME280;20066;48.764;9.176;2023-03-01T04:57:52;98791.94;;;3.60;52.09
550;BME280;20066;48.764;9.176;2023-03-01T05:00:21;98784.41;;;3.62;52.24
550;BME280;20066;48.764;9.176;2023-03-01T05:02:52;98785.06;;;3.59;52.27
550;BME280;20066;48.764;9.176;2023-03-01T05:05:25;98791.72;;;3.44;53.57
550;BME280;20066;48.764;9.176;2023-03-01T05:07:55;98787.34;;;2.38;55.31
550;BME280;20066;48.764;9.176;2023-03-01T05:10:25;98785.78;;;1.59;58.48
550;BME280;20066;48.764;9.176;2023-03-01T05:12:53;98781.44;;;1.98;57.45
550;BME280;20066;48.764;9.176;2023-03-01T05:15:21;98791.13;;;2.03;57.95
550;BME280;20066;48.764;9.176;2023-03-01T05:17:52;98781.19;;;2.72;56.31
550;BME280;20066;48.764;9.176;2023-03-01T05:20:21;98776.44;;;2.05;57.44
550;BME280;20066;48.764;9.176;2023-03-01T05:22:50;98775.09;;;2.80;56.10
550;BME280;20066;48.764;9.176;2023-03-01T05:25:18;98779.63;;;2.80;55.83
550;BME280;20066;48.764;9.176;2023-03-01T05:27:49;98774.34;;;3.09;54.91
550;BME280;20066;48.764;9.176;2023-03-01T05:30:17;98771.59;;;2.97;55.05
550;BME280;20066;48.764;9.176;2023-03-01T05:32:47;98777.81;;;3.39;54.19
550;BME280;20066;48.764;9.176;2023-03-01T05:35:17;98784.88;;;3.64;53.32
550;BME280;20066;48.764;9.176;2023-03-01T05:37:47;98786.94;;;3.59;53.14
550;BME280;20066;48.764;9.176;2023-03-01T05:40:17;98782.44;;;3.50;53.80
550;BME280;20066;48.764;9.176;2023-03-01T05:42:47;98783.69;;;3.15;54.73
550;BME280;20066;48.764;9.176;2023-03-01T05:45:17;98785.97;;;2.96;55.05
550;BME280;20066;48.764;9.176;2023-03-01T05:47:46;98782.53;;;3.63;53.25
550;BME280;20066;48.764;9.176;2023-03-01T05:50:16;98780.03;;;3.87;52.57
550;BME280;20066;48.764;9.176;2023-03-01T05:52:46;98777.50;;;3.90;52.47
550;BME280;20066;48.764;9.176;2023-03-01T05:55:15;98776.50;;;3.15;54.12
550;BME280;20066;48.764;9.176;2023-03-01T05:57:44;98769.94;;;3.51;53.45
550;BME280;20066;48.764;9.176;2023-03-01T06:00:18;98763.31;;;2.43;56.99
550;BME280;20066;48.764;9.176;2023-03-01T06:02:48;98766.78;;;3.28;55.06
550;BME280;20066;48.764;9.176;2023-03-01T06:05:16;98764.75;;;2.87;56.21
550;BME280;20066;48.764;9.176;2023-03-01T06:07:44;98770.06;;;1.97;57.62
550;BME280;20066;48.764;9.176;2023-03-01T06:10:12;98759.13;;;1.90;58.90
550;BME280;20066;48.764;9.176;2023-03-01T06:12:42;98753.19;;;1.93;57.95
550;BME280;20066;48.764;9.176;2023-03-01T06:15:11;98762.25;;;2.27;58.41
550;BME280;20066;48.764;9.176;2023-03-01T06:17:41;98753.97;;;2.84;56.50
550;BME280;20066;48.764;9.176;2023-03-01T06:20:15;98762.00;;;3.13;54.46
550;BME280;20066;48.764;9.176;2023-03-01T06:22:44;98760.50;;;2.95;55.14
550;BME280;20066;48.764;9.176;2023-03-01T06:25:14;98757.94;;;3.07;55.18
550;BME280;20066;48.764;9.176;2023-03-01T06:27:42;98758.06;;;2.81;56.85
550;BME280;20066;48.764;9.176;2023-03-01T06:30:12;98758.53;;;3.21;54.06
550;BME280;20066;48.764;9.176;2023-03-01T06:32:40;98765.75;;;3.12;55.14
550;BME280;20066;48.764;9.176;2023-03-01T06:35:12;98767.75;;;2.77;56.82
550;BME280;20066;48.764;9.176;2023-03-01T06:37:40;98762.00;;;2.66;55.43
550;BME280;20066;48.764;9.176;2023-03-01T06:40:10;98769.28;;;2.87;56.29
550;BME280;20066;48.764;9.176;2023-03-01T06:42:42;98766.78;;;3.28;54.79
550;BME280;20066;48.764;9.176;2023-03-01T06:45:10;98770.91;;;2.53;57.17
550;BME280;20066;48.764;9.176;2023-03-01T06:47:38;98774.41;;;2.02;58.41
550;BME280;20066;48.764;9.176;2023-03-01T06:50:07;98767.13;;;2.80;56.62
550;BME280;20066;48.764;9.176;2023-03-01T06:52:37;98766.47;;;2.11;58.68
550;BME280;20066;48.764;9.176;2023-03-01T06:55:06;98775.78;;;1.65;60.39
550;BME280;20066;48.764;9.176;2023-03-01T06:57:34;98776.69;;;1.43;59.74
550;BME280;20066;48.764;9.176;2023-03-01T07:00:04;98775.56;;;1.27;60.82
550;BME280;20066;48.764;9.176;2023-03-01T07:02:33;98770.94;;;1.58;60.44
550;BME280;20066;48.764;9.176;2023-03-01T07:05:01;98763.50;;;1.86;59.47
550;BME280;20066;48.764;9.176;2023-03-01T07:07:29;98771.00;;;1.19;61.20
550;BME280;20066;48.764;9.176;2023-03-01T07:09:58;98762.06;;;2.23;58.43
550;BME280;20066;48.764;9.176;2023-03-01T07:12:26;98759.75;;;2.13;58.74
550;BME280;20066;48.764;9.176;2023-03-01T07:14:54;98761.47;;;2.18;57.15
550;BME280;20066;48.764;9.176;2023-03-01T07:17:22;98762.66;;;0.95;62.05
550;BME280;20066;48.764;9.176;2023-03-01T07:19:50;98764.84;;;1.49;60.89
550;BME280;20066;48.764;9.176;2023-03-01T07:22:18;98757.28;;;1.17;61.32
550;BME280;20066;48.764;9.176;2023-03-01T07:24:46;98760.50;;;2.40;58.24
550;BME280;20066;48.764;9.176;2023-03-01T07:27:15;98755.63;;;1.38;60.02
550;BME280;20066;48.764;9.176;2023-03-01T07:29:42;98747.88;;;1.02;61.56
550;BME280;20066;48.764;9.176;2023-03-01T07:32:10;98752.41;;;1.67;60.82
550;BME280;20066;48.764;9.176;2023-03-01T07:34:38;98751.94;;;1.65;59.75
550;BME280;20066;48.764;9.176;2023-03-01T07:37:06;98743.44;;;0.80;62.05
550;BME280;20066;48.764;9.176;2023-03-01T07:39:39;98745.03;;;1.47;60.02
550;BME280;20066;48.764;9.176;2023-03-01T07:42:08;98743.84;;;2.13;58.97
550;BME280;20066;48.764;9.176;2023-03-01T07:44:37;98745.13;;;2.71;57.61
550;BME280;20066;48.764;9.176;2023-03-01T07:47:05;98738.38;;;1.58;59.78
550;BME280;20066;48.764;9.176;2023-03-01T07:49:33;98736.88;;;2.64;57.20
550;BME280;20066;48.764;9.176;2023-03-01T07:52:01;98736.97;;;1.95;58.77
550;BME280;20066;48.764;9.176;2023-03-01T07:54:29;98729.94;;;2.80;56.73
550;BME280;20066;48.764;9.176;2023-03-01T07:56:57;98741.63;;;3.76;53.75
550;BME280;20066;48.764;9.176;2023-03-01T07:59:25;98726.53;;;4.21;52.82
550;BME280;20066;48.764;9.176;2023-03-01T08:01:57;98733.09;;;3.41;53.86
550;BME280;20066;48.764;9.176;2023-03-01T08:04:25;98731.38;;;3.07;55.63
550;BME280;20066;48.764;9.176;2023-03-01T08:06:54;98723.03;;;2.41;55.90
550;BME280;20066;48.764;9.176;2023-03-01T08:09:26;98727.94;;;2.05;58.57
550;BME280;20066;48.764;9.176;2023-03-01T08:11:53;98729.63;;;2.01;58.06
550;BME280;20066;48.764;9.176;2023-03-01T08:14:21;98731.94;;;3.21;55.28
550;BME280;20066;48.764;9.176;2023-03-01T08:16:49;98723.91;;;3.59;54.47
550;BME280;20066;48.764;9.176;2023-03-01T08:19:19;98722.75;;;1.99;59.14
550;BME280;20066;48.764;9.176;2023-03-01T08:21:47;98715.56;;;2.17;57.59
550;BME280;20066;48.764;9.176;2023-03-01T08:24:14;98727.88;;;2.39;56.45
550;BME280;20066;48.764;9.176;2023-03-01T08:26:42;98719.59;;;3.46;53.90
550;BME280;20066;48.764;9.176;2023-03-01T08:29:10;98720.44;;;4.00;53.37
550;BME280;20066;48.764;9.176;2023-03-01T08:31:39;98729.50;;;7.02;46.46
550;BME280;20066;48.764;9.176;2023-03-01T08:34:09;98723.66;;;11.01;37.58
550;BME280;20066;48.764;9.176;2023-03-01T08:36:40;98722.81;;;12.17;34.74
550;BME280;20066;48.764;9.176;2023-03-01T08:39:10;98719.28;;;12.06;33.43
550;BME280;20066;48.764;9.176;2023-03-01T08:41:38;98716.66;;;10.93;35.25
550;BME280;20066;48.764;9.176;2023-03-01T08:44:07;98708.19;;;11.46;34.55
550;BME280;20066;48.764;9.176;2023-03-01T08:46:36;98717.44;;;15.19;29.12
550;BME280;20066;48.764;9.176;2023-03-01T08:49:05;98709.97;;;8.48;40.96
550;BME280;20066;48.764;9.176;2023-03-01T08:51:35;98714.81;;;12.56;33.04
550;BME280;20066;48.764;9.176;2023-03-01T08:54:05;98708.50;;;10.82;35.88
550;BME280;20066;48.764;9.176;2023-03-01T08:56:34;98698.97;;;8.34;39.18
550;BME280;20066;48.764;9.176;2023-03-01T08:59:01;98697.81;;;9.82;36.97
550;BME280;20066;48.764;9.176;2023-03-01T09:01:31;98699.13;;;11.13;35.91
550;BME280;20066;48.764;9.176;2023-03-01T09:03:59;98697.22;;;11.14;35.36
550;BME280;20066;48.764;9.176;2023-03-01T09:06:30;98695.13;;;13.44;31.47
550;BME280;20066;48.764;9.176;2023-03-01T09:08:58;98695.22;;;13.05;32.19
550;BME280;20066;48.764;9.176;2023-03-01T09:11:28;98691.34;;;11.59;33.62
550;BME280;20066;48.764;9.176;2023-03-01T09:13:56;98689.84;;;7.23;40.37
550;BME280;20066;48.764;9.176;2023-03-01T09:16:24;98682.75;;;9.74;39.37
550;BME280;20066;48.764;9.176;2023-03-01T09:18:53;98685.25;;;11.08;34.65
550;BME280;20066;48.764;9.176;2023-03-01T09:21:22;98674.47;;;14.07;31.35
550;BME280;20066;48.764;9.176;2023-03-01T09:24:06;98671.25;;;12.68;32.68
550;BME280;20066;48.764;9.176;2023-03-01T09:26:36;98664.72;;;14.79;30.37
550;BME280;20066;48.764;9.176;2023-03-01T09:29:04;98673.19;;;14.33;30.39
550;BME280;20066;48.764;9.176;2023-03-01T09:31:32;98671.78;;;15.86;28.44
550;BME280;20066;48.764;9.176;2023-03-01T09:34:00;98664.13;;;15.02;29.22
550;BME280;20066;48.764;9.176;2023-03-01T09:36:27;98677.44;;;16.82;26.91
550;BME280;20066;48.764;9.176;2023-03-01T09:38:57;98670.13;;;16.26;27.52
550;BME280;20066;48.764;9.176;2023-03-01T09:41:46;98664.81;;;14.10;30.12
550;BME280;20066;48.764;9.176;2023-03-01T09:44:26;98667.78;;;15.29;28.46
550;BME280;20066;48.764;9.176;2023-03-01T09:46:56;98669.53;;;11.79;32.90
550;BME280;20066;48.764;9.176;2023-03-01T09:49:26;98668.19;;;11.51;32.70
550;BME280;20066;48.764;9.176;2023-03-01T09:51:58;98667.91;;;11.64;34.43
550;BME280;20066;48.764;9.176;2023-03-01T09:54:27;98658.53;;;16.75;27.15
550;BME280;20066;48.764;9.176;2023-03-01T09:57:19;98658.72;;;15.77;26.77
550;BME280;20066;48.764;9.176;2023-03-01T10:02:44;98653.47;;;6.40;43.23
550;BME280;20066;48.764;9.176;2023-03-01T10:05:23;98649.72;;;8.65;38.54
550;BME280;20066;48.764;9.176;2023-03-01T10:08:01;98644.34;;;11.53;33.18
550;BME280;20066;48.764;9.176;2023-03-01T10:10:35;98631.75;;;6.88;43.55
550;BME280;20066;48.764;9.176;2023-03-01T10:13:15;98629.25;;;9.28;38.90
550;BME280;20066;48.764;9.176;2023-03-01T10:15:48;98633.31;;;6.58;42.14
550;BME280;20066;48.764;9.176;2023-03-01T10:18:24;98622.69;;;8.50;40.80
550;BME280;20066;48.764;9.176;2023-03-01T10:20:56;98627.44;;;7.73;41.09
550;BME280;20066;48.764;9.176;2023-03-01T10:23:27;98624.63;;;9.59;37.64
550;BME280;20066;48.764;9.176;2023-03-01T10:26:04;98621.69;;;11.58;34.93
550;BME280;20066;48.764;9.176;2023-03-01T10:28:50;98616.47;;;12.15;32.23
550;BME280;20066;48.764;9.176;2023-03-01T10:31:24;98612.25;;;12.67;33.11
550;BME280;20066;48.764;9.176;2023-03-01T10:33:55;98600.25;;;10.12;34.74
550;BME280;20066;48.764;9.176;2023-03-01T10:36:25;98607.66;;;12.89;31.22
550;BME280;20066;48.764;9.176;2023-03-01T10:38:54;98605.69;;;12.04;33.04
550;BME280;20066;48.764;9.176;2023-03-01T10:41:24;98601.84;;;13.04;30.97
550;BME280;20066;48.764;9.176;2023-03-01T10:43:56;98593.00;;;12.47;32.86
550;BME280;20066;48.764;9.176;2023-03-01T10:46:26;98599.91;;;14.03;29.83
550;BME280;20066;48.764;9.176;2023-03-01T10:49:22;98599.16;;;13.04;32.12
550;BME280;20066;48.764;9.176;2023-03-01T10:51:53;98601.16;;;15.66;27.90
550;BME280;20066;48.764;9.176;2023-03-01T10:54:23;98597.50;;;15.08;27.42
550;BME280;20066;48.764;9.176;2023-03-01T10:56:54;98590.28;;;13.04;31.05
550;BME280;20066;48.764;9.176;2023-03-01T10:59:30;98586.88;;;15.28;28.31
550;BME280;20066;48.764;9.176;2023-03-01T11:02:12;98586.44;;;12.30;32.07
550;BME280;20066;48.764;9.176;2023-03-01T11:05:01;98578.91;;;15.10;28.19
550;BME280;20066;48.764;9.176;2023-03-01T11:07:30;98571.72;;;13.97;29.68
550;BME280;20066;48.764;9.176;2023-03-01T11:09:58;98571.63;;;14.62;29.28
550;BME280;20066;48.764;9.176;2023-03-01T11:12:26;98570.69;;;11.10;33.84
550;BME280;20066;48.764;9.176;2023-03-01T11:14:57;98560.41;;;9.43;36.76
550;BME280;20066;48.764;9.176;2023-03-01T11:17:28;98561.81;;;15.51;28.46
550;BME280;20066;48.764;9.176;2023-03-01T11:20:15;98561.91;;;14.68;28.56
550;BME280;20066;48.764;9.176;2023-03-01T11:22:47;98545.41;;;14.08;29.87
550;BME280;20066;48.764;9.176;2023-03-01T11:25:17;98556.72;;;13.01;29.75
550;BME280;20066;48.764;9.176;2023-03-01T11:27:56;98549.13;;;11.07;34.89
550;BME280;20066;48.764;9.176;2023-03-01T11:30:29;98537.66;;;10.07;35.86
550;BME280;20066;48.764;9.176;2023-03-01T11:33:11;98532.81;;;13.76;31.09
550;BME280;20066;48.764;9.176;2023-03-01T11:35:42;98522.84;;;10.79;34.92
550;BME280;20066;48.764;9.176;2023-03-01T11:38:18;98506.53;;;13.07;30.59
550;BME280;20066;48.764;9.176;2023-03-01T11:40:51;98512.63;;;13.91;30.42
550;BME280;20066;48.764;9.176;2023-03-01T11:43:27;98516.25;;;16.46;27.07
550;BME280;20066;48.764;9.176;2023-03-01T11:49:41;98513.00;;;11.15;32.89
550;BME280;20066;48.764;9.176;2023-03-01T11:52:25;98510.13;;;10.72;34.05
550;BME280;20066;48.764;9.176;2023-03-01T11:55:10;98497.25;;;8.10;39.27
550;BME280;20066;48.764;9.176;2023-03-01T11:57:51;98495.72;;;8.62;38.91
550;BME280;20066;48.764;9.176;2023-03-01T12:00:44;98489.03;;;9.05;38.94
550;BME280;20066;48.764;9.176;2023-03-01T12:03:23;98476.72;;;10.22;36.43
550;BME280;20066;48.764;9.176;2023-03-01T12:09:13;98465.88;;;9.64;37.85
550;BME280;20066;48.764;9.176;2023-03-01T12:12:02;98470.69;;;10.32;36.41
550;BME280;20066;48.764;9.176;2023-03-01T12:14:52;98454.44;;;10.18;36.12
550;BME280;20066;48.764;9.176;2023-03-01T12:17:47;98448.72;;;7.44;41.32
550;BME280;20066;48.764;9.176;2023-03-01T12:20:29;98449.88;;;7.04;42.63
550;BME280;20066;48.764;9.176;2023-03-01T12:23:25;98439.09;;;8.94;39.70
550;BME280;20066;48.764;9.176;2023-03-01T12:26:08;98435.47;;;8.52;40.74
550;BME280;20066;48.764;9.176;2023-03-01T12:28:55;98431.09;;;7.65;41.70
550;BME280;20066;48.764;9.176;2023-03-01T12:31:44;98420.16;;;8.23;40.76
550;BME280;20066;48.764;9.176;2023-03-01T12:34:39;98421.63;;;9.47;38.90
550;BME280;20066;48.764;9.176;2023-03-01T12:37:22;98415.75;;;8.98;39.25
550;BME280;20066;48.764;9.176;2023-03-01T12:40:15;98410.84;;;9.44;38.30
550;BME280;20066;48.764;9.176;2023-03-01T12:42:55;98416.19;;;7.64;41.81
550;BME280;20066;48.764;9.176;2023-03-01T12:45:38;98403.19;;;8.15;41.58
550;BME280;20066;48.764;9.176;2023-03-01T12:48:22;98405.00;;;8.98;40.00
550;BME280;20066;48.764;9.176;2023-03-01T12:50:53;98386.72;;;8.43;40.44
550;BME280;20066;48.764;9.176;2023-03-01T12:53:27;98377.78;;;7.53;42.79
550;BME280;20066;48.764;9.176;2023-03-01T12:56:00;98383.53;;;8.94;40.51
550;BME280;20066;48.764;9.176;2023-03-01T12:58:32;98377.25;;;8.83;40.51
550;BME280;20066;48.764;9.176;2023-03-01T13:01:21;98380.28;;;8.78;40.24
550;BME280;20066;48.764;9.176;2023-03-01T13:04:08;98353.19;;;8.86;40.06
550;BME280;20066;48.764;9.176;2023-03-01T13:06:46;98356.84;;;9.08;39.57
550;BME280;20066;48.764;9.176;2023-03-01T13:09:24;98361.66;;;9.80;38.41
550;BME280;20066;48.764;9.176;2023-03-01T13:11:54;98352.38;;;8.52;40.56
550;BME280;20066;48.764;9.176;2023-03-01T13:14:36;98359.56;;;8.15;40.98
550;BME280;20066;48.764;9.176;2023-03-01T13:17:29;98368.09;;;7.94;41.82
550;BME280;20066;48.764;9.176;2023-03-01T13:19:58;98366.31;;;8.05;41.40
550;BME280;20066;48.764;9.176;2023-03-01T13:22:29;98357.63;;;7.86;41.96
550;BME280;20066;48.764;9.176;2023-03-01T13:25:11;98349.50;;;9.05;40.32
550;BME280;20066;48.764;9.176;2023-03-01T13:27:40;98360.66;;;8.70;40.50
550;BME280;20066;48.764;9.176;2023-03-01T13:33:42;98355.66;;;9.06;39.60
550;BME280;20066;48.764;9.176;2023-03-01T13:36:47;98348.81;;;8.71;40.87
550;BME280;20066;48.764;9.176;2023-03-01T13:39:30;98350.28;;;8.69;41.00
550;BME280;20066;48.764;9.176;2023-03-01T13:42:01;98343.59;;;8.26;41.80
550;BME280;20066;48.764;9.176;2023-03-01T13:44:32;98346.38;;;8.63;41.11
550;BME280;20066;48.764;9.176;2023-03-01T13:47:12;98344.22;;;9.12;40.10
550;BME280;20066;48.764;9.176;2023-03-01T13:49:47;98344.75;;;8.54;40.73
550;BME280;20066;48.764;9.176;2023-03-01T13:52:32;98341.84;;;8.07;42.16
550;BME280;20066;48.764;9.176;2023-03-01T13:55:03;98344.19;;;9.09;40.12
550;BME280;20066;48.764;9.176;2023-03-01T13:57:36;98344.56;;;9.11;39.95
550;BME280;20066;48.764;9.176;2023-03-01T14:00:06;98342.28;;;9.53;39.74
550;BME280;20066;48.764;9.176;2023-03-01T14:02:35;98340.81;;;9.19;40.12
550;BME280;20066;48.764;9.176;2023-03-01T14:05:05;98334.63;;;9.59;39.52
550;BME280;20066;48.764;9.176;2023-03-01T14:07:38;98325.75;;;9.51;39.38
550;BME280;20066;48.764;9.176;2023-03-01T14:10:11;98339.84;;;9.96;38.91